Aérodrome :
LOGIN :

S'inscrire | Disclaimer

   EN    FR    IT 

 










Légende :    VFR   VFR Marginal   IFR   IFR Intensif   IFR Très Intensif
Visi : 
Plafond : 
>= 8 km
>= 3000ft
5 à 8 km
1000 à 3000 ft
1500m à 5 km
500 à 1000 ft
800 à 1500m
200 à 500 ft
< 800m
< 200 ft
Symboles :   Orages  Brouillard  Fortes neiges  Fortes précipitations  Vent > 20 kt
SIGMETs :   Divers  Orages  Givrage  Turbulence  Onde Orograph.  Cendres Volcan.







- Altitude de l'aérodrome : 604 ft
- Code IATA : LCJ


EPLL - Lodz

DERNIER METAR :
  • 171730Z 00000KT 2700 BR BKN028 M03/M04 Q1023

METARs EXPIRÉS :
  • 171700Z 00000KT 2800 BR FEW021 BKN028 M03/M04 Q1023
  • 171630Z 20001KT 3100 BR BKN027 M03/M04 Q1023
  • 171600Z VRB01KT 3400 BR OVC028 M03/M04 Q1023
  • 171530Z VRB01KT 3300 BR OVC028 M03/M04 Q1022
  • 171500Z VRB02KT 3100 BR OVC026 M04/M05 Q1022

TAF TAF EPLL
Valide du 17 à 18h jusqu'au 18 à 18h UTC


171730Z 1718/1818 VRB04KT 2900 BR BKN030
TEMPO 1718/1812 1400 BR BKN007
PROB40 1719/1808 0700 FG BKN003
BECMG 1811/1813 4000 -SNRA BR BKN014
TEMPO 1812/1818 2000 BR BKN005
Pas de NOTAMs connus pour ce terrain.



MET'MAP, la Météo Aéronautique d'un coup d'oeil ! - Copyright ORBIFLY Décembre 2007 - Disclaimer

ORBIFLY MET'MAP TEAM :

Programmation & Développement : Alexandra Zaïnal
Conception & Développement : Baudouin d'Aumeries
Co-Programmation & Développement : Marc-Olivier Méhu
Soutien technique & logistique : Manuel Goepfert

Contact : metmap@orbifly.com




SOURCES & CREDITS :

   NOAA